Time;durP1;ratioP1;P1;durP2;ratioP2;P2;SDS_P1;SDS_P2;PMS_P1;PMS_P2;Temp;Humidity;BMP_temperature;BMP_pressure;BME280_temperature;BME280_humidity;BME280_pressure;Samples;Min_cycle;Max_cycle;Signal;HPM_P1;HPM_P2
2021/03/21 00:00:42;;;;;;;6.53;3.20;;;4.00;96.50;;;;;;4938980;29;20622;-76
2021/03/21 00:03:11;;;;;;;7.78;3.35;;;4.00;96.50;;;;;;4924910;29;20044;-74
2021/03/21 00:05:37;;;;;;;5.88;3.70;;;4.00;96.70;;;;;;4922469;29;20023;-76
2021/03/21 00:08:07;;;;;;;4.97;3.47;;;4.10;96.70;;;;;;4922068;29;20465;-75
2021/03/21 00:10:34;;;;;;;5.55;4.05;;;4.10;96.90;;;;;;4937236;29;20035;-74
2021/03/21 00:13:00;;;;;;;6.82;4.50;;;4.10;96.90;;;;;;4928019;29;20021;-74
2021/03/21 00:15:27;;;;;;;5.68;3.75;;;4.20;96.50;;;;;;4932374;29;20031;-74
2021/03/21 00:17:54;;;;;;;7.68;4.20;;;4.20;96.60;;;;;;4925475;29;20039;-74
2021/03/21 00:20:24;;;;;;;6.53;3.67;;;4.20;96.60;;;;;;4919876;29;20107;-74
2021/03/21 00:22:49;;;;;;;4.90;3.42;;;4.20;96.80;;;;;;4933795;29;20031;-74
2021/03/21 00:25:21;;;;;;;6.72;4.22;;;4.20;96.80;;;;;;4937327;29;20028;-74
2021/03/21 00:27:47;;;;;;;6.80;3.63;;;4.30;96.90;;;;;;4933873;29;20031;-75
2021/03/21 00:30:21;;;;;;;5.15;3.78;;;4.30;96.80;;;;;;4914922;29;20043;-73
2021/03/21 00:32:56;;;;;;;5.85;4.10;;;4.30;97.00;;;;;;4922549;29;20060;-76
2021/03/21 00:35:23;;;;;;;6.07;3.65;;;4.30;97.30;;;;;;4942833;29;20489;-74
2021/03/21 00:37:52;;;;;;;6.50;3.72;;;4.40;97.40;;;;;;4921633;29;20063;-74
2021/03/21 00:40:19;;;;;;;8.63;5.65;;;4.40;97.70;;;;;;4926112;29;20036;-75
2021/03/21 00:42:48;;;;;;;7.03;4.22;;;4.40;98.00;;;;;;4924188;29;20029;-74
2021/03/21 00:45:16;;;;;;;7.32;4.10;;;4.40;98.10;;;;;;4940659;29;20032;-74
2021/03/21 00:47:42;;;;;;;7.85;4.13;;;4.50;98.40;;;;;;4928499;29;20036;-74
2021/03/21 00:50:12;;;;;;;6.45;4.25;;;4.50;99.00;;;;;;4904275;29;20052;-74
2021/03/21 00:52:38;;;;;;;7.00;3.97;;;4.50;99.30;;;;;;4915274;29;20498;-74
2021/03/21 00:55:06;;;;;;;7.57;4.85;;;4.50;99.50;;;;;;4926996;29;20036;-75
2021/03/21 00:57:32;;;;;;;7.00;4.57;;;4.60;99.90;;;;;;4932169;29;20084;-75
2021/03/21 00:59:58;;;;;;;8.13;5.10;;;4.50;99.90;;;;;;4931166;29;20036;-74
2021/03/21 01:02:23;;;;;;;7.88;4.78;;;4.60;99.90;;;;;;4931293;29;20048;-75
2021/03/21 01:04:49;;;;;;;15.07;6.65;;;4.60;99.90;;;;;;4929827;29;20051;-75
2021/03/21 01:07:21;;;;;;;8.15;5.43;;;4.60;99.90;;;;;;4915488;29;20036;-73
2021/03/21 01:09:50;;;;;;;8.57;5.30;;;4.60;99.90;;;;;;4928822;29;20028;-75
2021/03/21 01:12:15;;;;;;;7.28;5.38;;;4.60;99.90;;;;;;4920975;29;20048;-74
2021/03/21 01:14:41;;;;;;;8.88;5.68;;;4.50;99.90;;;;;;4920167;29;20040;-73
2021/03/21 01:17:06;;;;;;;8.13;5.50;;;4.50;99.90;;;;;;4917508;29;20052;-75
2021/03/21 01:19:32;;;;;;;7.82;5.30;;;4.50;99.90;;;;;;4926918;29;20075;-74
2021/03/21 01:21:58;;;;;;;9.40;6.03;;;;;;;;;;4937661;29;20030;-74
2021/03/21 01:24:24;;;;;;;10.57;7.13;;;4.60;99.90;;;;;;4927630;29;20123;-73
2021/03/21 01:26:51;;;;;;;10.77;6.50;;;4.60;99.90;;;;;;4921522;29;20092;-74
2021/03/21 01:29:17;;;;;;;9.55;6.30;;;4.60;99.90;;;;;;4930903;29;20047;-74
2021/03/21 01:31:43;;;;;;;9.27;6.18;;;4.60;99.90;;;;;;4942410;29;20040;-75
2021/03/21 01:34:11;;;;;;;10.10;6.95;;;4.60;99.90;;;;;;4926728;29;20032;-74
2021/03/21 01:36:38;;;;;;;10.27;6.35;;;4.60;99.90;;;;;;4912471;29;20115;-77
2021/03/21 01:39:09;;;;;;;12.52;7.35;;;4.50;99.90;;;;;;4931332;29;20024;-75
2021/03/21 01:41:39;;;;;;;8.68;6.10;;;4.50;99.90;;;;;;4938957;29;20043;-76
2021/03/21 01:44:08;;;;;;;12.63;7.35;;;4.50;99.90;;;;;;4930237;29;20064;-74
2021/03/21 01:46:34;;;;;;;11.20;6.30;;;;;;;;;;4929330;29;20078;-74
2021/03/21 01:49:04;;;;;;;9.60;6.72;;;4.40;99.90;;;;;;4932003;29;20031;-75
2021/03/21 01:51:32;;;;;;;10.23;6.22;;;4.40;99.90;;;;;;4933208;29;20040;-74
2021/03/21 01:54:12;;;;;;;13.02;7.82;;;4.40;99.90;;;;;;4901313;29;20032;-74
2021/03/21 01:56:39;;;;;;;9.68;7.55;;;4.40;99.90;;;;;;4929627;29;20084;-74
2021/03/21 01:59:19;;;;;;;10.70;7.63;;;4.40;99.90;;;;;;4923899;29;20029;-75
2021/03/21 02:01:45;;;;;;;10.80;7.35;;;;;;;;;;4915377;29;20035;-75
2021/03/21 02:04:12;;;;;;;9.70;7.22;;;4.30;99.90;;;;;;4935008;29;20032;-75
2021/03/21 02:06:40;;;;;;;11.80;7.40;;;4.30;99.90;;;;;;4932618;29;20032;-74
2021/03/21 02:09:27;;;;;;;13.20;7.93;;;4.30;99.90;;;;;;4930226;29;20475;-75
2021/03/21 02:12:16;;;;;;;12.25;8.18;;;4.30;99.90;;;;;;4923719;29;20054;-74
2021/03/21 02:15:10;;;;;;;12.93;8.15;;;4.30;99.90;;;;;;4928997;29;20210;-74
2021/03/21 02:17:50;;;;;;;13.55;8.25;;;4.30;99.90;;;;;;4922956;29;20024;-73
2021/03/21 02:20:24;;;;;;;13.55;8.00;;;4.20;99.90;;;;;;4931322;29;20035;-74
2021/03/21 02:22:58;;;;;;;13.95;9.38;;;4.20;99.90;;;;;;4927215;29;20203;-73
2021/03/21 02:25:53;;;;;;;13.93;9.20;;;4.20;99.90;;;;;;4905984;29;20425;-74
2021/03/21 02:28:44;;;;;;;15.02;10.15;;;4.20;99.90;;;;;;4920968;29;20035;-74
2021/03/21 02:31:20;;;;;;;12.73;9.27;;;4.20;99.90;;;;;;4927647;29;20036;-74
2021/03/21 02:33:51;;;;;;;15.77;9.80;;;4.30;99.90;;;;;;4935488;29;20047;-74
2021/03/21 02:36:33;;;;;;;15.00;8.73;;;4.20;99.90;;;;;;4945937;29;20035;-73
2021/03/21 02:39:17;;;;;;;14.15;9.25;;;4.20;99.90;;;;;;4942516;29;20412;-74
2021/03/21 02:41:46;;;;;;;12.88;9.10;;;4.20;99.90;;;;;;4918191;29;20096;-73
2021/03/21 02:44:22;;;;;;;12.13;8.40;;;4.20;99.90;;;;;;4907270;29;20047;-73
2021/03/21 02:47:14;;;;;;;12.68;8.48;;;4.20;99.90;;;;;;4937835;29;20069;-74
2021/03/21 02:49:45;;;;;;;13.43;9.10;;;4.20;99.90;;;;;;4938979;29;20026;-74
2021/03/21 02:52:45;;;;;;;15.52;8.48;;;4.20;99.90;;;;;;4950121;29;20028;-73
2021/03/21 02:55:29;;;;;;;12.35;8.60;;;4.20;99.90;;;;;;4929101;29;20028;-73
2021/03/21 02:58:02;;;;;;;12.48;8.05;;;4.20;99.90;;;;;;4934594;29;20095;-74
2021/03/21 03:00:33;;;;;;;12.35;8.20;;;4.20;99.90;;;;;;4926676;29;20028;-73
2021/03/21 03:03:03;;;;;;;13.40;8.70;;;4.20;99.90;;;;;;4940084;29;20135;-74
2021/03/21 03:05:34;;;;;;;11.65;7.53;;;4.30;99.90;;;;;;4932602;29;20018;-74
2021/03/21 03:08:09;;;;;;;13.15;7.43;;;4.30;99.90;;;;;;4935150;29;20052;-72
2021/03/21 03:10:50;;;;;;;11.00;8.52;;;4.30;99.90;;;;;;4929562;29;20529;-73
2021/03/21 03:13:16;;;;;;;14.38;8.50;;;4.30;99.90;;;;;;4934836;29;20130;-73
2021/03/21 03:15:42;;;;;;;12.02;8.02;;;4.30;99.90;;;;;;4933447;29;20039;-72
2021/03/21 03:18:47;;;;;;;13.10;7.93;;;4.30;99.90;;;;;;4939065;29;20031;-72
2021/03/21 03:21:43;;;;;;;11.68;8.00;;;4.30;99.90;;;;;;4920198;29;20039;-74
2021/03/21 03:24:10;;;;;;;13.13;7.75;;;4.30;99.90;;;;;;4917488;29;20040;-72
2021/03/21 03:26:48;;;;;;;15.48;8.57;;;4.30;99.90;;;;;;4925627;29;20025;-73
2021/03/21 03:29:20;;;;;;;13.75;7.88;;;4.40;99.90;;;;;;4938763;29;20038;-74
2021/03/21 03:31:51;;;;;;;10.52;7.78;;;4.30;99.90;;;;;;4920687;29;20084;-72
2021/03/21 03:34:17;;;;;;;14.50;8.38;;;4.30;99.90;;;;;;4928886;29;20032;-73
2021/03/21 03:36:43;;;;;;;14.35;9.65;;;;;;;;;;4933576;29;20043;-73
2021/03/21 03:39:09;;;;;;;12.98;8.40;;;4.30;99.90;;;;;;4940743;29;20542;-73
2021/03/21 03:41:51;;;;;;;11.07;7.68;;;4.40;99.90;;;;;;4932957;29;20103;-74
2021/03/21 03:44:51;;;;;;;18.55;9.68;;;4.40;99.90;;;;;;4938382;29;20032;-72
2021/03/21 03:47:34;;;;;;;11.80;7.90;;;4.40;99.90;;;;;;4934464;29;20067;-73
2021/03/21 03:50:42;;;;;;;12.02;7.68;;;4.40;99.90;;;;;;4928876;29;20442;-73
2021/03/21 03:53:31;;;;;;;10.25;7.25;;;4.40;99.90;;;;;;4924356;29;20052;-73
2021/03/21 03:56:08;;;;;;;9.75;7.28;;;4.50;99.90;;;;;;4940106;29;20032;-73
2021/03/21 03:59:07;;;;;;;10.40;7.35;;;4.50;99.90;;;;;;4925938;29;20055;-72
2021/03/21 04:01:47;;;;;;;11.75;7.10;;;4.60;99.90;;;;;;4934585;29;20074;-73
2021/03/21 04:04:39;;;;;;;13.73;7.50;;;4.60;99.90;;;;;;4934500;29;20028;-72
2021/03/21 04:07:17;;;;;;;9.95;6.68;;;4.60;99.90;;;;;;4937278;29;20040;-74
2021/03/21 04:10:10;;;;;;;10.80;8.32;;;4.50;99.90;;;;;;4938182;29;20016;-74
2021/03/21 04:12:49;;;;;;;11.13;7.13;;;4.60;99.90;;;;;;4925832;29;20040;-73
2021/03/21 04:15:25;;;;;;;9.77;6.75;;;4.70;99.90;;;;;;4938655;29;20031;-74
2021/03/21 04:18:19;;;;;;;9.10;7.00;;;4.60;99.90;;;;;;4939106;29;20062;-73
2021/03/21 04:20:54;;;;;;;10.98;8.10;;;4.70;99.90;;;;;;4936708;29;20032;-74
2021/03/21 04:23:34;;;;;;;10.48;7.95;;;4.70;99.90;;;;;;4935663;29;20115;-74
2021/03/21 04:26:06;;;;;;;11.13;7.82;;;4.70;99.90;;;;;;4934362;29;20077;-73
2021/03/21 04:28:50;;;;;;;11.10;8.23;;;4.70;99.90;;;;;;4936830;29;20054;-74
2021/03/21 04:31:17;;;;;;;11.73;8.02;;;4.70;99.90;;;;;;4935919;29;20036;-73
2021/03/21 04:33:47;;;;;;;10.30;7.25;;;4.70;99.90;;;;;;4913805;29;20039;-73
2021/03/21 04:36:23;;;;;;;10.60;6.28;;;4.70;99.90;;;;;;4931633;29;20114;-74
2021/03/21 04:38:56;;;;;;;8.88;6.85;;;4.70;99.90;;;;;;4919128;29;20087;-73
2021/03/21 04:41:27;;;;;;;11.27;6.63;;;4.60;99.90;;;;;;4932931;29;20079;-72
2021/03/21 04:44:21;;;;;;;8.57;6.43;;;4.70;99.90;;;;;;4919592;29;20494;-73
2021/03/21 04:47:04;;;;;;;9.68;7.43;;;4.60;99.90;;;;;;4921543;29;20075;-75
2021/03/21 04:49:30;;;;;;;12.98;9.50;;;4.60;99.90;;;;;;4935922;29;20378;-73
2021/03/21 04:52:14;;;;;;;9.45;7.10;;;4.60;99.90;;;;;;4932840;29;20051;-73
2021/03/21 04:54:43;;;;;;;10.40;6.20;;;4.70;99.90;;;;;;4932251;29;20040;-74
2021/03/21 04:57:31;;;;;;;8.70;5.80;;;4.70;99.90;;;;;;4936702;29;20388;-73
2021/03/21 04:59:58;;;;;;;10.57;6.07;;;4.70;99.90;;;;;;4942117;29;20030;-75
2021/03/21 05:02:27;;;;;;;9.10;5.55;;;4.70;99.90;;;;;;4930722;29;20028;-74
2021/03/21 05:04:59;;;;;;;8.70;6.22;;;4.70;99.90;;;;;;4941292;29;20032;-74
2021/03/21 05:07:55;;;;;;;7.93;5.50;;;4.80;99.90;;;;;;4933871;29;20039;-73
2021/03/21 05:10:34;;;;;;;6.32;4.80;;;4.80;99.90;;;;;;4931780;29;20039;-73
2021/03/21 05:13:07;;;;;;;5.95;4.60;;;4.90;99.90;;;;;;4909770;29;20028;-74
2021/03/21 05:15:38;;;;;;;6.95;5.00;;;4.90;99.90;;;;;;4931284;29;20028;-72
2021/03/21 05:18:32;;;;;;;5.32;4.30;;;4.90;99.90;;;;;;4929036;29;20032;-73
2021/03/21 05:21:27;;;;;;;6.35;4.22;;;4.90;99.90;;;;;;4922251;29;20517;-74
2021/03/21 05:24:27;;;;;;;8.10;4.60;;;4.90;99.90;;;;;;4935277;29;20065;-73
2021/03/21 05:27:09;;;;;;;5.93;3.78;;;4.90;99.90;;;;;;4927957;29;20028;-73
2021/03/21 05:29:54;;;;;;;6.40;4.70;;;4.90;99.90;;;;;;4910748;29;20046;-73
2021/03/21 05:32:22;;;;;;;4.78;3.78;;;4.90;99.90;;;;;;4928629;29;20036;-74
2021/03/21 05:34:52;;;;;;;5.38;3.92;;;4.90;99.90;;;;;;4914340;29;20092;-73
2021/03/21 05:37:40;;;;;;;4.97;3.70;;;5.00;99.90;;;;;;4935445;29;20475;-73
2021/03/21 05:40:44;;;;;;;5.32;4.00;;;5.00;99.90;;;;;;4939595;29;20032;-73
2021/03/21 05:43:35;;;;;;;6.53;3.38;;;5.10;99.90;;;;;;4928129;29;20028;-74
2021/03/21 05:46:33;;;;;;;4.20;2.93;;;5.10;99.90;;;;;;4927737;29;20092;-73
2021/03/21 05:49:49;;;;;;;3.95;2.92;;;5.10;99.90;;;;;;4911297;29;20046;-74
2021/03/21 05:52:43;;;;;;;5.38;3.60;;;5.20;99.90;;;;;;4919611;29;20045;-73
2021/03/21 05:55:33;;;;;;;4.63;3.22;;;5.20;99.90;;;;;;4915955;29;20044;-73
2021/03/21 05:58:42;;;;;;;5.07;3.50;;;5.20;99.90;;;;;;4928892;29;20040;-73
2021/03/21 06:01:37;;;;;;;4.93;3.38;;;5.10;99.90;;;;;;4849509;29;20066;-74
2021/03/21 06:04:50;;;;;;;5.72;3.15;;;5.20;99.90;;;;;;4926779;29;20040;-74
2021/03/21 06:07:44;;;;;;;4.55;3.05;;;5.20;99.90;;;;;;4890372;29;20043;-72
2021/03/21 06:10:28;;;;;;;3.47;2.55;;;5.20;99.90;;;;;;4940891;29;20051;-73
2021/03/21 06:13:15;;;;;;;4.40;3.10;;;5.20;99.90;;;;;;4924939;29;20037;-73
2021/03/21 06:16:08;;;;;;;4.30;3.22;;;5.20;99.90;;;;;;4940498;29;20068;-73
2021/03/21 06:19:02;;;;;;;3.63;3.05;;;5.30;99.90;;;;;;4939458;29;20028;-73
2021/03/21 06:21:34;;;;;;;4.57;3.25;;;5.30;99.90;;;;;;4937126;29;20039;-73
2021/03/21 06:24:21;;;;;;;5.55;3.83;;;5.30;99.90;;;;;;4936952;29;20047;-73
2021/03/21 06:27:18;;;;;;;4.30;3.20;;;5.30;99.90;;;;;;4928202;29;20043;-73
2021/03/21 06:29:58;;;;;;;5.28;3.58;;;5.30;99.90;;;;;;4934797;29;20103;-73
2021/03/21 06:32:51;;;;;;;5.32;3.47;;;5.40;99.90;;;;;;4933523;29;20044;-73
2021/03/21 06:35:25;;;;;;;5.13;3.40;;;5.40;99.90;;;;;;4937619;29;20039;-74
2021/03/21 06:38:26;;;;;;;4.15;2.90;;;5.40;99.90;;;;;;4936388;29;20036;-73
2021/03/21 06:41:15;;;;;;;4.22;3.03;;;5.40;99.90;;;;;;4925927;29;20414;-73
2021/03/21 06:44:10;;;;;;;5.00;3.20;;;5.40;99.90;;;;;;4935780;29;20210;-74
2021/03/21 06:46:42;;;;;;;3.95;3.20;;;5.40;99.90;;;;;;4935092;29;20039;-74
2021/03/21 06:49:43;;;;;;;4.35;3.03;;;5.50;99.90;;;;;;4933329;29;20020;-73
2021/03/21 06:52:33;;;;;;;3.53;2.57;;;5.50;99.90;;;;;;4923162;29;20048;-74
2021/03/21 06:55:52;;;;;;;3.50;2.60;;;5.50;99.90;;;;;;4928971;29;20359;-73
2021/03/21 06:58:55;;;;;;;5.18;3.17;;;5.60;99.90;;;;;;4869184;29;20042;-73
2021/03/21 07:01:41;;;;;;;4.47;2.78;;;5.70;99.90;;;;;;4928372;29;20028;-73
2021/03/21 07:04:26;;;;;;;4.13;2.70;;;5.60;99.90;;;;;;4915389;29;20028;-73
2021/03/21 07:07:21;;;;;;;4.00;3.10;;;5.80;99.90;;;;;;4942132;29;20417;-73
2021/03/21 07:10:09;;;;;;;3.92;2.70;;;5.90;99.90;;;;;;4907319;29;20060;-72
2021/03/21 07:12:59;;;;;;;6.95;4.30;;;5.90;99.90;;;;;;4928424;29;20096;-74
2021/03/21 07:15:49;;;;;;;3.53;2.40;;;6.00;99.90;;;;;;4932937;29;20447;-74
2021/03/21 07:18:47;;;;;;;3.15;2.55;;;6.00;99.90;;;;;;4932249;29;20030;-73
2021/03/21 07:22:00;;;;;;;2.95;2.05;;;6.20;99.90;;;;;;4930823;29;20036;-73
2021/03/21 07:24:38;;;;;;;3.50;2.42;;;6.20;99.90;;;;;;4904381;29;20043;-73
2021/03/21 07:27:31;;;;;;;3.25;2.35;;;6.20;99.90;;;;;;4923715;29;20096;-73
2021/03/21 07:30:28;;;;;;;2.63;2.20;;;6.30;99.90;;;;;;4932882;29;20035;-73
2021/03/21 07:33:05;;;;;;;3.58;2.30;;;6.40;99.90;;;;;;4933814;29;20044;-72
2021/03/21 07:36:11;;;;;;;4.07;2.30;;;6.30;99.90;;;;;;4927934;29;20028;-73
2021/03/21 07:38:58;;;;;;;647.53;362.73;;;6.30;99.90;;;;;;4926209;29;20027;-75
2021/03/21 07:41:48;;;;;;;73.88;38.55;;;6.20;99.90;;;;;;4945288;29;20063;-74
2021/03/21 07:44:25;;;;;;;9.02;5.53;;;6.20;99.90;;;;;;4932797;29;20028;-73
2021/03/21 07:47:15;;;;;;;2.75;1.92;;;6.20;99.90;;;;;;4933095;29;20043;-72
2021/03/21 07:50:11;;;;;;;4.15;1.90;;;6.30;99.90;;;;;;4928487;29;20035;-74
2021/03/21 07:52:51;;;;;;;3.15;1.98;;;6.30;99.90;;;;;;4928623;29;20052;-74
2021/03/21 07:55:29;;;;;;;4.65;2.10;;;6.30;99.90;;;;;;4925674;29;20036;-75
2021/03/21 07:58:14;;;;;;;3.90;2.30;;;6.50;99.90;;;;;;4935063;29;20034;-73
2021/03/21 08:00:43;;;;;;;3.88;2.45;;;6.70;99.90;;;;;;4930086;29;20024;-74
2021/03/21 08:03:26;;;;;;;3.15;1.63;;;6.80;99.90;;;;;;4934443;29;20024;-74
2021/03/21 08:05:54;;;;;;;3.95;1.85;;;6.90;99.90;;;;;;4932629;29;20751;-75
2021/03/21 08:08:31;;;;;;;4.95;2.40;;;6.80;99.90;;;;;;4935394;29;20019;-76
2021/03/21 08:11:01;;;;;;;2.40;1.63;;;6.70;99.90;;;;;;4915426;29;20220;-74
2021/03/21 08:13:42;;;;;;;3.22;1.52;;;6.80;99.90;;;;;;4932510;29;20111;-78
2021/03/21 08:16:27;;;;;;;3.13;2.10;;;6.90;99.90;;;;;;4926456;29;20041;-77
2021/03/21 08:18:53;;;;;;;2.72;1.63;;;6.90;99.90;;;;;;4933559;29;20091;-74
2021/03/21 08:21:30;;;;;;;2.97;2.10;;;6.90;99.90;;;;;;4928380;29;20115;-76
2021/03/21 08:24:05;;;;;;;2.83;1.77;;;6.90;99.90;;;;;;4930502;29;20060;-76
2021/03/21 08:26:32;;;;;;;3.92;1.90;;;6.80;99.90;;;;;;4929493;29;20036;-75
2021/03/21 08:29:08;;;;;;;2.70;2.00;;;6.80;99.90;;;;;;4934994;29;20040;-75
2021/03/21 08:31:38;;;;;;;3.03;2.10;;;6.90;99.90;;;;;;4931420;29;20046;-75
2021/03/21 08:34:31;;;;;;;3.63;2.20;;;7.30;99.90;;;;;;4908524;29;20044;-74
2021/03/21 08:37:12;;;;;;;2.47;2.03;;;7.40;99.90;;;;;;4926253;29;20498;-74
2021/03/21 08:39:45;;;;;;;4.07;2.80;;;7.70;99.90;;;;;;4924756;29;20032;-72
2021/03/21 08:42:26;;;;;;;2.50;1.67;;;7.80;99.90;;;;;;4921584;29;20042;-74
2021/03/21 08:45:10;;;;;;;5.23;2.60;;;7.90;99.90;;;;;;4917469;29;20043;-72
2021/03/21 08:47:37;;;;;;;3.33;2.17;;;7.80;99.90;;;;;;4917924;29;20039;-73
2021/03/21 08:50:26;;;;;;;4.13;2.47;;;7.70;99.90;;;;;;4917317;29;20156;-74
2021/03/21 08:52:53;;;;;;;4.68;2.80;;;7.20;99.90;;;;;;4920702;29;20052;-74
2021/03/21 08:55:31;;;;;;;4.85;3.15;;;7.30;99.90;;;;;;4919768;29;20024;-76
2021/03/21 08:57:59;;;;;;;4.38;2.92;;;7.30;99.90;;;;;;4929290;29;20026;-74
2021/03/21 09:00:28;;;;;;;5.78;2.70;;;7.20;99.90;;;;;;4902954;29;20120;-75
2021/03/21 09:02:54;;;;;;;4.82;3.05;;;7.20;99.90;;;;;;4925110;29;20039;-75
2021/03/21 09:05:23;;;;;;;5.45;3.05;;;7.30;99.90;;;;;;4923923;29;20088;-74
2021/03/21 09:07:48;;;;;;;3.92;3.15;;;7.20;99.90;;;;;;4916763;29;20059;-73
2021/03/21 09:10:36;;;;;;;5.65;2.78;;;7.10;99.90;;;;;;4917459;29;20053;-74
2021/03/21 09:13:10;;;;;;;3.75;2.53;;;7.10;99.90;;;;;;4923039;29;20067;-74
2021/03/21 09:15:39;;;;;;;5.82;2.40;;;7.10;99.90;;;;;;4927104;29;20040;-76
2021/03/21 09:18:12;;;;;;;7.55;2.90;;;7.10;99.90;;;;;;4917010;29;20032;-73
2021/03/21 09:20:41;;;;;;;5.85;3.03;;;7.10;99.90;;;;;;4926013;29;20034;-74
2021/03/21 09:23:32;;;;;;;6.53;3.22;;;7.20;99.90;;;;;;4928808;29;20024;-76
2021/03/21 09:26:00;;;;;;;9.40;3.33;;;7.20;99.90;;;;;;4926190;29;20036;-74
2021/03/21 09:28:32;;;;;;;4.05;2.80;;;7.20;99.90;;;;;;4925755;29;20028;-74
2021/03/21 09:31:07;;;;;;;7.13;4.07;;;6.90;99.90;;;;;;4920920;29;20039;-74
2021/03/21 09:33:44;;;;;;;8.23;3.38;;;6.80;99.90;;;;;;4922818;29;20023;-74
2021/03/21 09:36:20;;;;;;;5.32;3.58;;;6.80;99.90;;;;;;4917122;29;20644;-75
2021/03/21 09:39:17;;;;;;;6.15;3.75;;;6.80;99.90;;;;;;4912821;29;20035;-74
2021/03/21 09:41:47;;;;;;;9.43;3.97;;;6.80;99.90;;;;;;4919795;29;20040;-76
2021/03/21 09:44:24;;;;;;;8.50;4.00;;;6.90;99.90;;;;;;4919602;29;20121;-74
2021/03/21 09:46:58;;;;;;;8.38;3.63;;;6.80;99.90;;;;;;4921706;29;20043;-75
2021/03/21 09:50:22;;;;;;;8.43;3.53;;;6.90;99.90;;;;;;4920525;29;20495;-73
2021/03/21 09:53:22;;;;;;;11.00;3.70;;;7.00;99.90;;;;;;4859648;29;20116;-76
2021/03/21 09:55:51;;;;;;;8.60;3.45;;;6.90;99.90;;;;;;4842590;29;20025;-79
2021/03/21 09:58:55;;;;;;;6.32;2.92;;;7.20;99.90;;;;;;4893082;29;20131;-74
2021/03/21 10:01:24;;;;;;;8.20;3.08;;;7.20;99.90;;;;;;4913295;29;20042;-73
2021/03/21 10:03:55;;;;;;;7.30;2.55;;;7.20;99.90;;;;;;4919612;29;20102;-76
2021/03/21 10:06:29;;;;;;;8.10;2.80;;;7.30;99.90;;;;;;4916345;29;20032;-75
2021/03/21 10:09:03;;;;;;;6.93;2.95;;;7.40;99.90;;;;;;4902167;29;20032;-73
2021/03/21 10:11:36;;;;;;;9.30;3.63;;;7.60;99.90;;;;;;4920715;29;20537;-76
2021/03/21 10:14:27;;;;;;;8.68;3.33;;;7.70;99.90;;;;;;4906025;29;20090;-75
2021/03/21 10:16:58;;;;;;;7.75;2.63;;;7.80;99.90;;;;;;4918195;29;20326;-73
2021/03/21 10:19:39;;;;;;;8.13;2.38;;;7.90;99.90;;;;;;4916201;29;20082;-73
2021/03/21 10:22:20;;;;;;;10.88;2.40;;;8.10;99.90;;;;;;4914864;29;20119;-74
2021/03/21 10:24:50;;;;;;;5.82;2.70;;;8.00;99.90;;;;;;4907395;29;20060;-73
2021/03/21 10:27:31;;;;;;;7.30;2.97;;;7.90;99.90;;;;;;4916470;29;20032;-73
2021/03/21 10:30:22;;;;;;;9.30;2.80;;;7.80;99.90;;;;;;4903836;29;20028;-74
2021/03/21 10:33:00;;;;;;;8.75;2.85;;;7.80;99.90;;;;;;4879216;29;20040;-73
2021/03/21 10:35:29;;;;;;;8.30;2.72;;;7.40;99.90;;;;;;4905912;29;20036;-77
2021/03/21 10:38:07;;;;;;;6.68;2.38;;;7.40;99.90;;;;;;4893719;29;20185;-73
2021/03/21 10:40:34;;;;;;;7.95;2.80;;;7.30;99.90;;;;;;4905638;29;20050;-74
2021/03/21 10:43:08;;;;;;;9.30;3.42;;;7.20;99.90;;;;;;4894825;29;20035;-79
2021/03/21 10:45:38;;;;;;;9.18;2.92;;;7.40;99.90;;;;;;4905604;29;20024;-77
2021/03/21 10:48:30;;;;;;;8.57;2.90;;;7.40;99.90;;;;;;4904127;29;20035;-73
2021/03/21 10:51:06;;;;;;;7.93;2.65;;;7.30;99.90;;;;;;4912456;29;20048;-74
2021/03/21 10:54:21;;;;;;;8.90;2.50;;;7.40;99.90;;;;;;4915157;29;20036;-78
2021/03/21 10:57:26;;;;;;;8.90;3.35;;;7.30;99.90;;;;;;4905207;29;20546;-79
2021/03/21 11:00:11;;;;;;;10.00;3.40;;;7.00;99.90;;;;;;4898114;29;20024;-80
2021/03/21 11:02:57;;;;;;;8.45;3.60;;;7.00;99.90;;;;;;4892251;29;20028;-79
2021/03/21 11:05:39;;;;;;;7.22;2.95;;;6.90;99.90;;;;;;4909419;29;21068;-77
2021/03/21 11:08:06;;;;;;;10.27;3.55;;;6.70;99.90;;;;;;4921571;29;20048;-74
2021/03/21 11:11:13;;;;;;;7.22;3.05;;;6.70;99.90;;;;;;4918836;29;20135;-76
2021/03/21 11:13:39;;;;;;;12.82;4.00;;;6.60;99.90;;;;;;4918812;29;20024;-74
2021/03/21 11:16:13;;;;;;;12.32;4.20;;;6.70;99.90;;;;;;4916900;29;20051;-72
2021/03/21 11:18:43;;;;;;;12.80;4.10;;;6.50;99.90;;;;;;4914995;29;20107;-74
2021/03/21 11:21:14;;;;;;;11.80;4.28;;;6.50;99.90;;;;;;4923416;29;20032;-75
2021/03/21 11:23:44;;;;;;;12.70;4.53;;;6.60;99.90;;;;;;4916059;29;20105;-76
2021/03/21 11:26:28;;;;;;;15.05;3.30;;;;;;;;;;4922565;29;20035;-78
2021/03/21 11:29:06;;;;;;;16.95;4.50;;;6.60;99.90;;;;;;4916722;29;20053;-74
2021/03/21 11:31:43;;;;;;;17.60;4.47;;;6.60;99.90;;;;;;4922982;29;20071;-74
2021/03/21 11:34:19;;;;;;;12.98;4.03;;;6.60;99.90;;;;;;4921220;29;20513;-81
2021/03/21 11:36:47;;;;;;;10.95;3.65;;;6.70;99.90;;;;;;4918431;29;20028;-75
2021/03/21 11:39:32;;;;;;;12.50;5.05;;;6.70;99.90;;;;;;4923657;29;20028;-75
2021/03/21 11:42:01;;;;;;;14.98;5.22;;;6.60;99.90;;;;;;4927076;29;20028;-77
2021/03/21 11:44:30;;;;;;;14.25;4.18;;;6.70;99.90;;;;;;4923064;29;20034;-75
2021/03/21 11:47:24;;;;;;;19.05;5.50;;;6.70;99.90;;;;;;4910229;29;20035;-77
2021/03/21 11:49:50;;;;;;;12.40;4.47;;;;;;;;;;4926223;29;20027;-77
2021/03/21 11:52:17;;;;;;;16.45;4.45;;;7.10;99.90;;;;;;4924869;29;20056;-76
2021/03/21 11:54:44;;;;;;;13.60;5.68;;;7.20;99.90;;;;;;4922802;29;20134;-78
2021/03/21 11:57:34;;;;;;;14.70;5.00;;;7.10;99.90;;;;;;4925644;29;20107;-78
2021/03/21 12:00:28;;;;;;;14.85;4.75;;;7.30;99.90;;;;;;4924487;29;20522;-77
2021/03/21 12:03:14;;;;;;;14.80;5.03;;;7.30;99.90;;;;;;4919522;29;20494;-75
2021/03/21 12:05:44;;;;;;;13.52;3.72;;;7.30;99.90;;;;;;4920587;29;20470;-78
2021/03/21 12:08:36;;;;;;;15.70;4.28;;;9.40;99.90;;;;;;4927210;29;20024;-75
2021/03/21 12:11:35;;;;;;;13.88;4.95;;;7.60;99.90;;;;;;4928318;29;20058;-73
2021/03/21 12:14:32;;;;;;;11.57;4.47;;;7.60;99.90;;;;;;4930043;29;20036;-79
2021/03/21 12:17:24;;;;;;;13.05;5.00;;;7.80;99.90;;;;;;4925867;29;20024;-78
2021/03/21 12:19:54;;;;;;;13.57;4.45;;;8.10;99.90;;;;;;4917118;29;20044;-76
2021/03/21 12:22:39;;;;;;;14.38;4.35;;;8.50;99.90;;;;;;4919501;29;20035;-78
2021/03/21 12:25:30;;;;;;;15.65;5.18;;;8.50;99.90;;;;;;4925005;29;20024;-79
2021/03/21 12:28:20;;;;;;;13.63;4.45;;;8.30;99.90;;;;;;4913135;29;20036;-79
2021/03/21 12:30:51;;;;;;;13.82;4.70;;;8.80;99.90;;;;;;4926032;29;20050;-80
2021/03/21 12:33:26;;;;;;;12.52;4.70;;;8.70;99.90;;;;;;4931641;29;20032;-79
2021/03/21 12:35:55;;;;;;;11.88;4.18;;;8.70;99.90;;;;;;4920224;29;20099;-79
2021/03/21 12:38:32;;;;;;;14.68;4.18;;;9.00;99.90;;;;;;4926492;29;20103;-81
2021/03/21 12:41:30;;;;;;;17.48;5.10;;;8.90;99.90;;;;;;4926222;29;20025;-79
2021/03/21 12:44:22;;;;;;;18.10;5.10;;;9.00;99.90;;;;;;4900992;29;20103;-82
2021/03/21 12:46:49;;;;;;;16.15;5.10;;;;;;;;;;4932184;29;20036;-79
2021/03/21 12:49:39;;;;;;;12.60;4.85;;;9.20;99.90;;;;;;4939123;29;20027;-80
2021/03/21 12:52:29;;;;;;;12.35;4.50;;;9.50;99.90;;;;;;4929275;29;20052;-79
2021/03/21 12:54:57;;;;;;;28.05;7.93;;;8.80;99.90;;;;;;4936401;29;20742;-82
2021/03/21 12:57:23;;;;;;;18.67;7.22;;;;;;;;;;4927628;29;20551;-81
2021/03/21 12:59:52;;;;;;;19.38;5.72;;;9.40;99.90;;;;;;4923541;29;20136;-79
2021/03/21 13:02:24;;;;;;;20.75;8.85;;;10.00;99.90;;;;;;4931240;29;20016;-81
2021/03/21 13:04:51;;;;;;;18.38;7.25;;;10.50;99.90;;;;;;4926556;29;20080;-87
2021/03/21 13:07:33;;;;;;;15.43;8.50;;;11.90;99.40;;;;;;4910941;29;20032;-82
2021/03/21 13:09:59;;;;;;;12.20;5.55;;;11.90;99.30;;;;;;4928407;29;20123;-80
2021/03/21 13:12:32;;;;;;;12.70;5.78;;;;;;;;;;4922380;29;20068;-82
2021/03/21 13:14:58;;;;;;;14.77;5.20;;;;;;;;;;4931475;29;20035;-81
2021/03/21 13:17:27;;;;;;;12.73;4.95;;;;;;;;;;4905352;29;20032;-86
2021/03/21 13:19:53;;;;;;;11.93;5.65;;;;;;;;;;4919781;29;20035;-81
2021/03/21 13:22:24;;;;;;;35.55;21.55;;;12.30;93.90;;;;;;4921734;29;20494;-80
2021/03/21 13:24:50;;;;;;;19.77;10.93;;;14.60;92.10;;;;;;4920818;29;20471;-80
2021/03/21 13:27:28;;;;;;;22.02;10.88;;;12.30;93.20;;;;;;4921642;29;20043;-85
2021/03/21 13:29:59;;;;;;;9.05;4.00;;;12.60;87.10;;;;;;4925382;29;20059;-81
2021/03/21 13:32:28;;;;;;;;;;;12.60;87.50;;;;;;4927183;29;20044;-81
2021/03/21 13:34:59;;;;;;;8.55;4.32;;;12.60;80.00;;;;;;4926880;29;19923;-84
2021/03/21 13:37:25;;;;;;;;;;;12.50;81.50;;;;;;4897399;29;20035;-80
2021/03/21 13:39:51;;;;;;;10.25;3.47;;;12.70;85.50;;;;;;4921477;29;19919;-75
2021/03/21 13:42:21;;;;;;;5.93;2.80;;;12.70;85.90;;;;;;4923306;29;20486;-76
2021/03/21 13:44:47;;;;;;;9.65;3.58;;;12.50;82.00;;;;;;4922478;29;20023;-76
2021/03/21 13:47:15;;;;;;;8.75;3.33;;;;;;;;;;4919188;29;20084;-72
2021/03/21 13:49:41;;;;;;;9.00;3.75;;;11.40;85.50;;;;;;4927146;29;20024;-75
2021/03/21 13:52:08;;;;;;;9.35;3.00;;;11.90;81.40;;;;;;4915912;29;20058;-76
2021/03/21 13:54:34;;;;;;;7.93;2.70;;;11.80;84.60;;;;;;4923753;29;20032;-84
2021/03/21 13:57:00;;;;;;;6.95;2.03;;;;;;;;;;4918706;29;20040;-75